Captain Lab — WDD9641 — position and weather

sailwx.info

Track history (hours):
 
Tides and Currents Weather Stations Pressure Air Temp Water Temp Dewpoint Dewpoint Depression Visibility Wind Speed Wind Dir Waves Ship Positions

Captain Lab

Owner: Lab Lifts Crewboats, LLC, Morgan City, LA. More information available from US FCC via Universal Licensing System and Coast Guard Vessel Documentation Center.

Last reported at 2018-Jun-22 06:05 UTC. Time now 2018-Jun-22 15:02 UTC.
Position N 29°37' W 092°17'.

Length 44 m; draft 2.4 m.

Type: Ship (hazmat cat B). MMSI: 367314340.

Date/timePositionNaut miles runAvg speedWind from/ knotsBaromVisibWave heightAir tempDewpointWater temp
2018-Jun-22 06:05N 29°37' W 092°17'118.2
2018-Jun-22 06:00N 29°38' W 092°16'917.2
2018-Jun-22 05:31N 29°46' W 092°11'3 5.5
2018-Jun-22 05:00N 29°47' W 092°09'0 0.0
2018-Jun-22 04:30N 29°47' W 092°09'0 0.0
2018-Jun-22 04:00N 29°47' W 092°09'0 0.0
2018-Jun-22 03:30N 29°47' W 092°09'2 4.5
2018-Jun-22 03:00N 29°46' W 092°11'918.2
2018-Jun-22 02:30N 29°38' W 092°16'65 5.6
2018-Jun-21 15:00N 28°35' W 092°28'63 7.3
2018-Jun-21 06:21N 29°37' W 092°17'513.4
2018-Jun-21 06:00N 29°42' W 092°15'612.6
2018-Jun-21 05:30N 29°46' W 092°10'1 1.2
2018-Jun-21 05:01N 29°47' W 092°11'0 0.0
2018-Jun-21 04:30N 29°47' W 092°11'2 4.3
2018-Jun-21 03:59N 29°47' W 092°09'0 0.0
2018-Jun-21 03:29N 29°47' W 092°09'0 0.0
2018-Jun-21 02:59N 29°47' W 092°09'0 0.0
2018-Jun-21 02:29N 29°47' W 092°09'0 0.0
2018-Jun-21 01:59N 29°47' W 092°09'0 0.0
2018-Jun-21 01:29N 29°47' W 092°09'0 0.0
2018-Jun-21 00:56N 29°47' W 092°09'0 0.0
2018-Jun-21 00:29N 29°47' W 092°09'0 0.1
2018-Jun-20 23:58N 29°48' W 092°09'0 0.0
2018-Jun-20 23:28N 29°48' W 092°09'0 0.0
2018-Jun-20 22:55N 29°48' W 092°09'0 0.0
2018-Jun-20 22:28N 29°48' W 092°09'0 0.0
2018-Jun-20 21:58N 29°48' W 092°09'0 0.0
2018-Jun-20 21:28N 29°48' W 092°09'0 0.0
2018-Jun-20 20:58N 29°48' W 092°09'0 0.0
2018-Jun-20 20:28N 29°48' W 092°09'0 0.0
2018-Jun-20 19:58N 29°48' W 092°09'0 0.0
2018-Jun-20 19:28N 29°48' W 092°09'0 0.0
2018-Jun-20 18:58N 29°48' W 092°09'0 0.0
2018-Jun-20 18:28N 29°48' W 092°09'0 0.0
2018-Jun-20 17:58N 29°48' W 092°09'0 0.0
2018-Jun-20 17:25N 29°48' W 092°09'0 0.0
2018-Jun-20 16:58N 29°48' W 092°09'0 0.0
2018-Jun-20 16:28N 29°48' W 092°09'0 0.0
2018-Jun-20 15:58N 29°48' W 092°09'0 0.0
2018-Jun-20 15:28N 29°48' W 092°09'0 0.0
2018-Jun-20 14:58N 29°48' W 092°09'0 0.0
2018-Jun-20 14:28N 29°48' W 092°09'0 0.0
2018-Jun-20 13:58N 29°48' W 092°09'0 0.0
2018-Jun-20 13:28N 29°48' W 092°09'0 0.0
2018-Jun-20 12:58N 29°48' W 092°09'0 0.0
2018-Jun-20 12:28N 29°48' W 092°09'0 0.0
2018-Jun-20 11:58N 29°48' W 092°09'0 0.1
2018-Jun-20 11:28N 29°47' W 092°09'0 0.0
2018-Jun-20 10:55N 29°47' W 092°09'0 0.0
2018-Jun-20 10:28N 29°47' W 092°09'0 0.0
2018-Jun-20 09:58N 29°47' W 092°09'0 0.0
2018-Jun-20 09:28N 29°47' W 092°09'0 0.0
2018-Jun-20 08:55N 29°47' W 092°09'0 0.1
2018-Jun-20 08:25N 29°48' W 092°09'0 0.0
2018-Jun-20 08:00N 29°48' W 092°09'2 3.4
2018-Jun-20 07:30N 29°47' W 092°10'714.3
2018-Jun-20 07:00N 29°41' W 092°15'4 0.1
2018-Jun-19 05:23N 29°38' W 092°16'513.0
2018-Jun-19 05:00N 29°42' W 092°15'611.0
2018-Jun-19 04:30N 29°46' W 092°11'2 4.2
2018-Jun-19 04:00N 29°48' W 092°09'0 0.0
2018-Jun-19 03:27N 29°48' W 092°09'0 0.0
2018-Jun-19 03:01N 29°48' W 092°09'0 0.0
2018-Jun-19 02:28N 29°48' W 092°09'0 0.0
2018-Jun-19 01:59N 29°48' W 092°09'0 0.0
2018-Jun-19 01:29N 29°48' W 092°09'0 0.2
2018-Jun-19 01:00N 29°47' W 092°09'0 0.0
2018-Jun-19 00:30N 29°47' W 092°09'0 0.0
2018-Jun-19 00:00N 29°47' W 092°09'0 0.0
2018-Jun-18 23:30N 29°47' W 092°09'0 0.0
2018-Jun-18 23:00N 29°47' W 092°09'0 0.0
2018-Jun-18 22:30N 29°47' W 092°09'0 0.0
2018-Jun-18 22:00N 29°47' W 092°09'0 0.0
2018-Jun-18 21:30N 29°47' W 092°09'0 0.0
2018-Jun-18 21:00N 29°47' W 092°09'0 0.0
2018-Jun-18 20:30N 29°47' W 092°09'0 0.0
2018-Jun-18 20:00N 29°47' W 092°09'0 0.0
2018-Jun-18 19:30N 29°47' W 092°09'0 0.3
2018-Jun-18 19:00N 29°47' W 092°09'5 9.2
2018-Jun-18 18:30N 29°45' W 092°13'611.1
2018-Jun-18 17:59N 29°39' W 092°16'5 1.0
2018-Jun-18 13:18N 29°35' W 092°18'411.7
2018-Jun-18 12:58N 29°39' W 092°16'612.5
2018-Jun-18 12:30N 29°44' W 092°14'5 9.9
2018-Jun-18 12:00N 29°47' W 092°09'1 1.2
2018-Jun-18 11:25N 29°47' W 092°09'0 0.0
2018-Jun-18 10:58N 29°47' W 092°09'0 0.0
2018-Jun-18 10:28N 29°47' W 092°09'0 0.0
2018-Jun-18 09:58N 29°47' W 092°09'0 0.0
2018-Jun-18 09:28N 29°47' W 092°09'0 0.0
2018-Jun-18 08:58N 29°47' W 092°09'0 0.0
2018-Jun-18 08:28N 29°47' W 092°09'0 0.0
2018-Jun-18 07:58N 29°47' W 092°09'0 0.0
2018-Jun-18 07:28N 29°47' W 092°09'0 0.0
2018-Jun-18 06:58N 29°47' W 092°09'0 0.0
2018-Jun-18 06:28N 29°47' W 092°09'0 0.0
2018-Jun-18 05:58N 29°47' W 092°09'0 0.0
2018-Jun-18 05:28N 29°47' W 092°09'0 0.0
2018-Jun-18 04:58N 29°47' W 092°09'0 0.0
2018-Jun-18 04:28N 29°47' W 092°09'0 0.0
2018-Jun-18 03:58N 29°47' W 092°09'0 0.0
2018-Jun-18 03:28N 29°47' W 092°09'0 0.0
2018-Jun-18 02:58N 29°47' W 092°09'0 0.0
2018-Jun-18 02:28N 29°47' W 092°09'0 0.0
2018-Jun-18 01:58N 29°47' W 092°09'0 0.0
2018-Jun-18 01:28N 29°47' W 092°09'0 0.0
2018-Jun-18 00:58N 29°47' W 092°09'0 0.0
2018-Jun-18 00:28N 29°47' W 092°09'0 0.0
2018-Jun-17 23:58N 29°47' W 092°09'0 0.0
2018-Jun-17 23:28N 29°47' W 092°09'0 0.0
2018-Jun-17 22:58N 29°47' W 092°09'0 0.2
2018-Jun-17 22:28N 29°48' W 092°09'0 0.1
2018-Jun-17 21:58N 29°48' W 092°09'0 0.0
2018-Jun-17 21:28N 29°48' W 092°09'0 0.0
2018-Jun-17 20:52N 29°48' W 092°09'0 0.0
2018-Jun-17 20:28N 29°48' W 092°09'0 0.0
2018-Jun-17 19:55N 29°48' W 092°09'0 0.0
2018-Jun-17 19:28N 29°48' W 092°09'0 0.0
2018-Jun-17 18:58N 29°48' W 092°09'0 0.0
2018-Jun-17 18:28N 29°48' W 092°09'0 0.0
2018-Jun-17 17:58N 29°48' W 092°09'0 0.0
2018-Jun-17 17:28N 29°48' W 092°09'0 0.0
2018-Jun-17 16:58N 29°48' W 092°09'0 0.0
2018-Jun-17 16:28N 29°48' W 092°09'0 0.0
2018-Jun-17 15:58N 29°48' W 092°09'0 0.0
2018-Jun-17 15:31N 29°48' W 092°09'1 1.7
2018-Jun-17 15:01N 29°47' W 092°09'5 9.5
2018-Jun-17 14:30N 29°44' W 092°14'510.0
2018-Jun-17 14:01N 29°40' W 092°15'3 0.3
2018-Jun-17 04:11N 29°37' W 092°17'212.4
2018-Jun-17 04:00N 29°39' W 092°16'612.6
2018-Jun-17 03:30N 29°45' W 092°13'4 8.7
2018-Jun-17 03:00N 29°47' W 092°09'0 0.7
2018-Jun-17 02:30N 29°47' W 092°09'0 0.2
2018-Jun-17 01:59N 29°47' W 092°09'0 0.0
2018-Jun-17 01:29N 29°47' W 092°09'0 0.0
2018-Jun-17 00:59N 29°47' W 092°09'0 0.0
2018-Jun-17 00:29N 29°47' W 092°09'0 0.0
2018-Jun-16 23:59N 29°47' W 092°09'0 0.0
2018-Jun-16 23:29N 29°47' W 092°09'0 0.0
2018-Jun-16 22:59N 29°47' W 092°09'0 0.0
2018-Jun-16 22:29N 29°47' W 092°09'0 0.0
2018-Jun-16 21:59N 29°47' W 092°09'0 0.0
2018-Jun-16 21:29N 29°47' W 092°09'0 0.0
2018-Jun-16 20:59N 29°47' W 092°09'0 0.0
2018-Jun-16 20:29N 29°47' W 092°09'0 0.0
2018-Jun-16 19:59N 29°47' W 092°09'0 0.0
2018-Jun-16 19:29N 29°47' W 092°09'0 0.0
2018-Jun-16 18:56N 29°47' W 092°09'0 0.0
2018-Jun-16 18:29N 29°47' W 092°09'0 0.0
2018-Jun-16 17:59N 29°47' W 092°09'0 0.0
2018-Jun-16 17:29N 29°47' W 092°09'0 0.0
2018-Jun-16 16:59N 29°47' W 092°09'0 0.0
2018-Jun-16 16:29N 29°47' W 092°09'0 0.0
2018-Jun-16 15:59N 29°47' W 092°09'0 0.0
2018-Jun-16 15:29N 29°47' W 092°09'0 0.0
2018-Jun-16 14:59N 29°47' W 092°09'0 0.0
2018-Jun-16 14:29N 29°47' W 092°09'0 0.0
2018-Jun-16 13:59N 29°47' W 092°09'0 0.0
2018-Jun-16 13:29N 29°47' W 092°09'0 0.0
2018-Jun-16 12:59N 29°47' W 092°09'0 0.0
2018-Jun-16 12:29N 29°47' W 092°09'0 0.0
2018-Jun-16 11:59N 29°47' W 092°09'0 0.0
2018-Jun-16 11:29N 29°47' W 092°09'0 0.0
2018-Jun-16 10:59N 29°47' W 092°09'0 0.0
2018-Jun-16 10:29N 29°47' W 092°09'0 0.0
2018-Jun-16 09:56N 29°47' W 092°09'0 0.0
2018-Jun-16 09:29N 29°47' W 092°09'0 0.0
2018-Jun-16 08:59N 29°47' W 092°09'0 0.0
2018-Jun-16 08:29N 29°47' W 092°09'0 0.0
2018-Jun-16 07:59N 29°47' W 092°09'0 0.0
2018-Jun-16 07:30N 29°47' W 092°09'0 0.2
2018-Jun-16 07:00N 29°48' W 092°08'2 3.2
2018-Jun-16 06:30N 29°47' W 092°10'1 1.7
2018-Jun-16 06:00N 29°47' W 092°11'0 0.0
2018-Jun-16 05:30N 29°47' W 092°11'0 0.0
2018-Jun-16 05:00N 29°47' W 092°11'0 0.0
2018-Jun-16 04:30N 29°47' W 092°11'0 0.0
2018-Jun-16 04:00N 29°47' W 092°11'0 0.6
2018-Jun-16 03:30N 29°47' W 092°11'714.3
2018-Jun-16 03:00N 29°41' W 092°15'5 0.2
2018-Jun-15 06:11N 29°36' W 092°17'317.8
2018-Jun-15 06:00N 29°39' W 092°16'713.7
2018-Jun-15 05:30N 29°45' W 092°12'4 7.4
2018-Jun-15 04:58N 29°47' W 092°09'0 0.0
2018-Jun-15 04:30N 29°47' W 092°09'0 0.0
2018-Jun-15 03:59N 29°47' W 092°09'0 0.0
2018-Jun-15 03:28N 29°47' W 092°09'2 3.5
2018-Jun-15 03:00N 29°47' W 092°10'815.7
2018-Jun-15 02:30N 29°40' W 092°15'5 0.2
2018-Jun-14 05:49N 29°36' W 092°17'412.5
2018-Jun-14 05:29N 29°40' W 092°15'611.7
2018-Jun-14 05:00N 29°45' W 092°13'4 8.4
2018-Jun-14 04:30N 29°47' W 092°09'0 0.7
2018-Jun-14 03:59N 29°47' W 092°09'0 0.0
2018-Jun-14 03:29N 29°47' W 092°09'0 0.0
2018-Jun-14 02:59N 29°47' W 092°09'0 0.0
2018-Jun-14 02:29N 29°47' W 092°09'0 0.0
2018-Jun-14 01:59N 29°47' W 092°09'0 0.0
2018-Jun-14 01:29N 29°47' W 092°09'0 0.0
2018-Jun-14 00:59N 29°47' W 092°09'0 0.0
2018-Jun-14 00:30N 29°47' W 092°09'2 4.3
2018-Jun-14 00:01N 29°47' W 092°11'0 0.4
2018-Jun-13 23:28N 29°47' W 092°11'0 0.0
2018-Jun-13 22:58N 29°47' W 092°11'0 0.0
2018-Jun-13 22:29N 29°47' W 092°11'0 0.0
2018-Jun-13 22:00N 29°47' W 092°11'0 0.0
2018-Jun-13 21:30N 29°47' W 092°11'0 0.0
2018-Jun-13 21:00N 29°47' W 092°11'0 0.0
2018-Jun-13 20:30N 29°47' W 092°11'1 1.1
2018-Jun-13 20:01N 29°46' W 092°11'918.0
2018-Jun-13 19:29N 29°38' W 092°16'  
Track history (hours):
 
Tides and Currents Weather Stations Pressure Air Temp Water Temp Dewpoint Dewpoint Depression Visibility Wind Speed Wind Dir Waves Ship Positions

Captain Lab

Owner: Lab Lifts Crewboats, LLC, Morgan City, LA. More information available from US FCC via Universal Licensing System and Coast Guard Vessel Documentation Center.

Last reported at 2018-Jun-22 06:05 UTC. Time now 2018-Jun-22 15:02 UTC.
Position N 29°37' W 092°17'.

Length 44 m; draft 2.4 m.

Type: Ship (hazmat cat B). MMSI: 367314340.

Date/timePositionNaut miles runAvg speedWind from/ knotsBaromVisibWave heightAir tempDewpointWater temp
2018-Jun-22 06:05N 29°37' W 092°17'118.2
2018-Jun-22 06:00N 29°38' W 092°16'917.2
2018-Jun-22 05:31N 29°46' W 092°11'3 5.5
2018-Jun-22 05:00N 29°47' W 092°09'0 0.0
2018-Jun-22 04:30N 29°47' W 092°09'0 0.0
2018-Jun-22 04:00N 29°47' W 092°09'0 0.0
2018-Jun-22 03:30N 29°47' W 092°09'2 4.5
2018-Jun-22 03:00N 29°46' W 092°11'918.2
2018-Jun-22 02:30N 29°38' W 092°16'65 5.6
2018-Jun-21 15:00N 28°35' W 092°28'63 7.3
2018-Jun-21 06:21N 29°37' W 092°17'513.4
2018-Jun-21 06:00N 29°42' W 092°15'612.6
2018-Jun-21 05:30N 29°46' W 092°10'1 1.2
2018-Jun-21 05:01N 29°47' W 092°11'0 0.0
2018-Jun-21 04:30N 29°47' W 092°11'2 4.3
2018-Jun-21 03:59N 29°47' W 092°09'0 0.0
2018-Jun-21 03:29N 29°47' W 092°09'0 0.0
2018-Jun-21 02:59N 29°47' W 092°09'0 0.0
2018-Jun-21 02:29N 29°47' W 092°09'0 0.0
2018-Jun-21 01:59N 29°47' W 092°09'0 0.0
2018-Jun-21 01:29N 29°47' W 092°09'0 0.0
2018-Jun-21 00:56N 29°47' W 092°09'0 0.0
2018-Jun-21 00:29N 29°47' W 092°09'0 0.1
2018-Jun-20 23:58N 29°48' W 092°09'0 0.0
2018-Jun-20 23:28N 29°48' W 092°09'0 0.0
2018-Jun-20 22:55N 29°48' W 092°09'0 0.0
2018-Jun-20 22:28N 29°48' W 092°09'0 0.0
2018-Jun-20 21:58N 29°48' W 092°09'0 0.0
2018-Jun-20 21:28N 29°48' W 092°09'0 0.0
2018-Jun-20 20:58N 29°48' W 092°09'0 0.0
2018-Jun-20 20:28N 29°48' W 092°09'0 0.0
2018-Jun-20 19:58N 29°48' W 092°09'0 0.0
2018-Jun-20 19:28N 29°48' W 092°09'0 0.0
2018-Jun-20 18:58N 29°48' W 092°09'0 0.0
2018-Jun-20 18:28N 29°48' W 092°09'0 0.0
2018-Jun-20 17:58N 29°48' W 092°09'0 0.0
2018-Jun-20 17:25N 29°48' W 092°09'0 0.0
2018-Jun-20 16:58N 29°48' W 092°09'0 0.0
2018-Jun-20 16:28N 29°48' W 092°09'0 0.0
2018-Jun-20 15:58N 29°48' W 092°09'0 0.0
2018-Jun-20 15:28N 29°48' W 092°09'0 0.0
2018-Jun-20 14:58N 29°48' W 092°09'0 0.0
2018-Jun-20 14:28N 29°48' W 092°09'0 0.0
2018-Jun-20 13:58N 29°48' W 092°09'0 0.0
2018-Jun-20 13:28N 29°48' W 092°09'0 0.0
2018-Jun-20 12:58N 29°48' W 092°09'0 0.0
2018-Jun-20 12:28N 29°48' W 092°09'0 0.0
2018-Jun-20 11:58N 29°48' W 092°09'0 0.1
2018-Jun-20 11:28N 29°47' W 092°09'0 0.0
2018-Jun-20 10:55N 29°47' W 092°09'0 0.0
2018-Jun-20 10:28N 29°47' W 092°09'0 0.0
2018-Jun-20 09:58N 29°47' W 092°09'0 0.0
2018-Jun-20 09:28N 29°47' W 092°09'0 0.0
2018-Jun-20 08:55N 29°47' W 092°09'0 0.1
2018-Jun-20 08:25N 29°48' W 092°09'0 0.0
2018-Jun-20 08:00N 29°48' W 092°09'2 3.4
2018-Jun-20 07:30N 29°47' W 092°10'714.3
2018-Jun-20 07:00N 29°41' W 092°15'4 0.1
2018-Jun-19 05:23N 29°38' W 092°16'513.0
2018-Jun-19 05:00N 29°42' W 092°15'611.0
2018-Jun-19 04:30N 29°46' W 092°11'2 4.2
2018-Jun-19 04:00N 29°48' W 092°09'0 0.0
2018-Jun-19 03:27N 29°48' W 092°09'0 0.0
2018-Jun-19 03:01N 29°48' W 092°09'0 0.0
2018-Jun-19 02:28N 29°48' W 092°09'0 0.0
2018-Jun-19 01:59N 29°48' W 092°09'0 0.0
2018-Jun-19 01:29N 29°48' W 092°09'0 0.2
2018-Jun-19 01:00N 29°47' W 092°09'0 0.0
2018-Jun-19 00:30N 29°47' W 092°09'0 0.0
2018-Jun-19 00:00N 29°47' W 092°09'0 0.0
2018-Jun-18 23:30N 29°47' W 092°09'0 0.0
2018-Jun-18 23:00N 29°47' W 092°09'0 0.0
2018-Jun-18 22:30N 29°47' W 092°09'0 0.0
2018-Jun-18 22:00N 29°47' W 092°09'0 0.0
2018-Jun-18 21:30N 29°47' W 092°09'0 0.0
2018-Jun-18 21:00N 29°47' W 092°09'0 0.0
2018-Jun-18 20:30N 29°47' W 092°09'0 0.0
2018-Jun-18 20:00N 29°47' W 092°09'0 0.0
2018-Jun-18 19:30N 29°47' W 092°09'0 0.3
2018-Jun-18 19:00N 29°47' W 092°09'5 9.2
2018-Jun-18 18:30N 29°45' W 092°13'611.1
2018-Jun-18 17:59N 29°39' W 092°16'5 1.0
2018-Jun-18 13:18N 29°35' W 092°18'411.7
2018-Jun-18 12:58N 29°39' W 092°16'612.5
2018-Jun-18 12:30N 29°44' W 092°14'5 9.9
2018-Jun-18 12:00N 29°47' W 092°09'1 1.2
2018-Jun-18 11:25N 29°47' W 092°09'0 0.0
2018-Jun-18 10:58N 29°47' W 092°09'0 0.0
2018-Jun-18 10:28N 29°47' W 092°09'0 0.0
2018-Jun-18 09:58N 29°47' W 092°09'0 0.0
2018-Jun-18 09:28N 29°47' W 092°09'0 0.0
2018-Jun-18 08:58N 29°47' W 092°09'0 0.0
2018-Jun-18 08:28N 29°47' W 092°09'0 0.0
2018-Jun-18 07:58N 29°47' W 092°09'0 0.0
2018-Jun-18 07:28N 29°47' W 092°09'0 0.0
2018-Jun-18 06:58N 29°47' W 092°09'0 0.0
2018-Jun-18 06:28N 29°47' W 092°09'0 0.0
2018-Jun-18 05:58N 29°47' W 092°09'0 0.0
2018-Jun-18 05:28N 29°47' W 092°09'0 0.0
2018-Jun-18 04:58N 29°47' W 092°09'0 0.0
2018-Jun-18 04:28N 29°47' W 092°09'0 0.0
2018-Jun-18 03:58N 29°47' W 092°09'0 0.0
2018-Jun-18 03:28N 29°47' W 092°09'0 0.0
2018-Jun-18 02:58N 29°47' W 092°09'0 0.0
2018-Jun-18 02:28N 29°47' W 092°09'0 0.0
2018-Jun-18 01:58N 29°47' W 092°09'0 0.0
2018-Jun-18 01:28N 29°47' W 092°09'0 0.0
2018-Jun-18 00:58N 29°47' W 092°09'0 0.0
2018-Jun-18 00:28N 29°47' W 092°09'0 0.0
2018-Jun-17 23:58N 29°47' W 092°09'0 0.0
2018-Jun-17 23:28N 29°47' W 092°09'0 0.0
2018-Jun-17 22:58N 29°47' W 092°09'0 0.2
2018-Jun-17 22:28N 29°48' W 092°09'0 0.1
2018-Jun-17 21:58N 29°48' W 092°09'0 0.0
2018-Jun-17 21:28N 29°48' W 092°09'0 0.0
2018-Jun-17 20:52N 29°48' W 092°09'0 0.0
2018-Jun-17 20:28N 29°48' W 092°09'0 0.0
2018-Jun-17 19:55N 29°48' W 092°09'0 0.0
2018-Jun-17 19:28N 29°48' W 092°09'0 0.0
2018-Jun-17 18:58N 29°48' W 092°09'0 0.0
2018-Jun-17 18:28N 29°48' W 092°09'0 0.0
2018-Jun-17 17:58N 29°48' W 092°09'0 0.0
2018-Jun-17 17:28N 29°48' W 092°09'0 0.0
2018-Jun-17 16:58N 29°48' W 092°09'0 0.0
2018-Jun-17 16:28N 29°48' W 092°09'0 0.0
2018-Jun-17 15:58N 29°48' W 092°09'0 0.0
2018-Jun-17 15:31N 29°48' W 092°09'1 1.7
2018-Jun-17 15:01N 29°47' W 092°09'5 9.5
2018-Jun-17 14:30N 29°44' W 092°14'510.0
2018-Jun-17 14:01N 29°40' W 092°15'3 0.3
2018-Jun-17 04:11N 29°37' W 092°17'212.4
2018-Jun-17 04:00N 29°39' W 092°16'612.6
2018-Jun-17 03:30N 29°45' W 092°13'4 8.7
2018-Jun-17 03:00N 29°47' W 092°09'0 0.7
2018-Jun-17 02:30N 29°47' W 092°09'0 0.2
2018-Jun-17 01:59N 29°47' W 092°09'0 0.0
2018-Jun-17 01:29N 29°47' W 092°09'0 0.0
2018-Jun-17 00:59N 29°47' W 092°09'0 0.0
2018-Jun-17 00:29N 29°47' W 092°09'0 0.0
2018-Jun-16 23:59N 29°47' W 092°09'0 0.0
2018-Jun-16 23:29N 29°47' W 092°09'0 0.0
2018-Jun-16 22:59N 29°47' W 092°09'0 0.0
2018-Jun-16 22:29N 29°47' W 092°09'0 0.0
2018-Jun-16 21:59N 29°47' W 092°09'0 0.0
2018-Jun-16 21:29N 29°47' W 092°09'0 0.0
2018-Jun-16 20:59N 29°47' W 092°09'0 0.0
2018-Jun-16 20:29N 29°47' W 092°09'0 0.0
2018-Jun-16 19:59N 29°47' W 092°09'0 0.0
2018-Jun-16 19:29N 29°47' W 092°09'0 0.0
2018-Jun-16 18:56N 29°47' W 092°09'0 0.0
2018-Jun-16 18:29N 29°47' W 092°09'0 0.0
2018-Jun-16 17:59N 29°47' W 092°09'0 0.0
2018-Jun-16 17:29N 29°47' W 092°09'0 0.0
2018-Jun-16 16:59N 29°47' W 092°09'0 0.0
2018-Jun-16 16:29N 29°47' W 092°09'0 0.0
2018-Jun-16 15:59N 29°47' W 092°09'0 0.0
2018-Jun-16 15:29N 29°47' W 092°09'0 0.0
2018-Jun-16 14:59N 29°47' W 092°09'0 0.0
2018-Jun-16 14:29N 29°47' W 092°09'0 0.0
2018-Jun-16 13:59N 29°47' W 092°09'0 0.0
2018-Jun-16 13:29N 29°47' W 092°09'0 0.0
2018-Jun-16 12:59N 29°47' W 092°09'0 0.0
2018-Jun-16 12:29N 29°47' W 092°09'0 0.0
2018-Jun-16 11:59N 29°47' W 092°09'0 0.0
2018-Jun-16 11:29N 29°47' W 092°09'0 0.0
2018-Jun-16 10:59N 29°47' W 092°09'0 0.0
2018-Jun-16 10:29N 29°47' W 092°09'0 0.0
2018-Jun-16 09:56N 29°47' W 092°09'0 0.0
2018-Jun-16 09:29N 29°47' W 092°09'0 0.0
2018-Jun-16 08:59N 29°47' W 092°09'0 0.0
2018-Jun-16 08:29N 29°47' W 092°09'0 0.0
2018-Jun-16 07:59N 29°47' W 092°09'0 0.0
2018-Jun-16 07:30N 29°47' W 092°09'0 0.2
2018-Jun-16 07:00N 29°48' W 092°08'2 3.2
2018-Jun-16 06:30N 29°47' W 092°10'1 1.7
2018-Jun-16 06:00N 29°47' W 092°11'0 0.0
2018-Jun-16 05:30N 29°47' W 092°11'0 0.0
2018-Jun-16 05:00N 29°47' W 092°11'0 0.0
2018-Jun-16 04:30N 29°47' W 092°11'0 0.0
2018-Jun-16 04:00N 29°47' W 092°11'0 0.6
2018-Jun-16 03:30N 29°47' W 092°11'714.3
2018-Jun-16 03:00N 29°41' W 092°15'5 0.2
2018-Jun-15 06:11N 29°36' W 092°17'317.8
2018-Jun-15 06:00N 29°39' W 092°16'713.7
2018-Jun-15 05:30N 29°45' W 092°12'4 7.4
2018-Jun-15 04:58N 29°47' W 092°09'0 0.0
2018-Jun-15 04:30N 29°47' W 092°09'0 0.0
2018-Jun-15 03:59N 29°47' W 092°09'0 0.0
2018-Jun-15 03:28N 29°47' W 092°09'2 3.5
2018-Jun-15 03:00N 29°47' W 092°10'815.7
2018-Jun-15 02:30N 29°40' W 092°15'5 0.2
2018-Jun-14 05:49N 29°36' W 092°17'412.5
2018-Jun-14 05:29N 29°40' W 092°15'611.7
2018-Jun-14 05:00N 29°45' W 092°13'4 8.4
2018-Jun-14 04:30N 29°47' W 092°09'0 0.7
2018-Jun-14 03:59N 29°47' W 092°09'0 0.0
2018-Jun-14 03:29N 29°47' W 092°09'0 0.0
2018-Jun-14 02:59N 29°47' W 092°09'0 0.0
2018-Jun-14 02:29N 29°47' W 092°09'0 0.0
2018-Jun-14 01:59N 29°47' W 092°09'0 0.0
2018-Jun-14 01:29N 29°47' W 092°09'0 0.0
2018-Jun-14 00:59N 29°47' W 092°09'0 0.0
2018-Jun-14 00:30N 29°47' W 092°09'2 4.3
2018-Jun-14 00:01N 29°47' W 092°11'0 0.4
2018-Jun-13 23:28N 29°47' W 092°11'0 0.0
2018-Jun-13 22:58N 29°47' W 092°11'0 0.0
2018-Jun-13 22:29N 29°47' W 092°11'0 0.0
2018-Jun-13 22:00N 29°47' W 092°11'0 0.0
2018-Jun-13 21:30N 29°47' W 092°11'0 0.0
2018-Jun-13 21:00N 29°47' W 092°11'0 0.0
2018-Jun-13 20:30N 29°47' W 092°11'1 1.1
2018-Jun-13 20:01N 29°46' W 092°11'918.0
2018-Jun-13 19:29N 29°38' W 092°16'  

Dump ship's entire track history